sensor_id;sensor_type;location;lat;lon;timestamp;P1;durP1;ratioP1;P2;durP2;ratioP2
68214;SDS011;55036;52.138;5.236;2023-08-06T00:01:27;12.90;;;8.50;;
68214;SDS011;55036;52.138;5.236;2023-08-06T00:03:54;9.90;;;8.07;;
68214;SDS011;55036;52.138;5.236;2023-08-06T00:06:21;12.65;;;9.05;;
68214;SDS011;55036;52.138;5.236;2023-08-06T00:08:48;11.98;;;8.32;;
68214;SDS011;55036;52.138;5.236;2023-08-06T00:11:15;11.05;;;8.95;;
68214;SDS011;55036;52.138;5.236;2023-08-06T00:13:41;12.93;;;8.18;;
68214;SDS011;55036;52.138;5.236;2023-08-06T00:16:11;10.93;;;8.50;;
68214;SDS011;55036;52.138;5.236;2023-08-06T00:18:39;12.53;;;8.53;;
68214;SDS011;55036;52.138;5.236;2023-08-06T00:21:06;14.52;;;9.15;;
68214;SDS011;55036;52.138;5.236;2023-08-06T00:23:33;15.43;;;7.80;;
68214;SDS011;55036;52.138;5.236;2023-08-06T00:26:00;12.25;;;9.93;;
68214;SDS011;55036;52.138;5.236;2023-08-06T00:28:27;15.77;;;8.75;;
68214;SDS011;55036;52.138;5.236;2023-08-06T00:30:54;13.82;;;9.52;;
68214;SDS011;55036;52.138;5.236;2023-08-06T00:33:22;12.82;;;9.00;;
68214;SDS011;55036;52.138;5.236;2023-08-06T00:35:49;11.98;;;9.40;;
68214;SDS011;55036;52.138;5.236;2023-08-06T00:38:16;11.48;;;7.82;;
68214;SDS011;55036;52.138;5.236;2023-08-06T00:40:42;8.80;;;7.90;;
68214;SDS011;55036;52.138;5.236;2023-08-06T01:22:06;12.45;;;7.75;;
68214;SDS011;55036;52.138;5.236;2023-08-06T01:24:33;12.90;;;7.75;;
68214;SDS011;55036;52.138;5.236;2023-08-06T01:27:06;11.88;;;7.40;;
68214;SDS011;55036;52.138;5.236;2023-08-06T01:29:39;11.02;;;7.45;;
68214;SDS011;55036;52.138;5.236;2023-08-06T01:32:11;14.63;;;8.15;;
68214;SDS011;55036;52.138;5.236;2023-08-06T01:34:40;11.77;;;8.15;;
68214;SDS011;55036;52.138;5.236;2023-08-06T01:37:09;9.75;;;7.60;;
68214;SDS011;55036;52.138;5.236;2023-08-06T01:39:37;13.77;;;8.02;;
68214;SDS011;55036;52.138;5.236;2023-08-06T01:42:08;9.25;;;7.60;;
68214;SDS011;55036;52.138;5.236;2023-08-06T01:44:35;11.05;;;7.95;;
68214;SDS011;55036;52.138;5.236;2023-08-06T01:47:02;10.07;;;7.82;;
68214;SDS011;55036;52.138;5.236;2023-08-06T01:49:29;11.07;;;7.40;;
68214;SDS011;55036;52.138;5.236;2023-08-06T01:51:56;12.00;;;8.20;;
68214;SDS011;55036;52.138;5.236;2023-08-06T01:54:23;11.05;;;8.20;;
68214;SDS011;55036;52.138;5.236;2023-08-06T01:56:49;10.73;;;8.73;;
68214;SDS011;55036;52.138;5.236;2023-08-06T01:59:16;12.70;;;9.07;;
68214;SDS011;55036;52.138;5.236;2023-08-06T02:01:43;12.07;;;8.50;;
68214;SDS011;55036;52.138;5.236;2023-08-06T02:04:09;13.75;;;9.23;;
68214;SDS011;55036;52.138;5.236;2023-08-06T02:06:36;12.45;;;8.70;;
68214;SDS011;55036;52.138;5.236;2023-08-06T02:09:03;13.10;;;9.02;;
68214;SDS011;55036;52.138;5.236;2023-08-06T02:11:30;16.20;;;9.43;;
68214;SDS011;55036;52.138;5.236;2023-08-06T02:13:56;12.68;;;9.07;;
68214;SDS011;55036;52.138;5.236;2023-08-06T02:16:23;10.57;;;8.85;;
68214;SDS011;55036;52.138;5.236;2023-08-06T02:18:50;13.13;;;9.35;;
68214;SDS011;55036;52.138;5.236;2023-08-06T02:21:16;17.70;;;9.40;;
68214;SDS011;55036;52.138;5.236;2023-08-06T02:23:43;13.68;;;8.77;;
68214;SDS011;55036;52.138;5.236;2023-08-06T02:26:10;12.88;;;8.50;;
68214;SDS011;55036;52.138;5.236;2023-08-06T02:28:37;11.65;;;8.30;;
68214;SDS011;55036;52.138;5.236;2023-08-06T02:31:03;15.77;;;9.18;;
68214;SDS011;55036;52.138;5.236;2023-08-06T02:33:32;13.23;;;8.65;;
68214;SDS011;55036;52.138;5.236;2023-08-06T02:36:00;14.65;;;9.68;;
68214;SDS011;55036;52.138;5.236;2023-08-06T02:38:27;15.15;;;9.60;;
68214;SDS011;55036;52.138;5.236;2023-08-06T02:40:54;14.27;;;9.88;;
68214;SDS011;55036;52.138;5.236;2023-08-06T02:43:21;14.50;;;9.55;;
68214;SDS011;55036;52.138;5.236;2023-08-06T02:45:48;17.88;;;9.75;;
68214;SDS011;55036;52.138;5.236;2023-08-06T02:48:14;18.65;;;10.05;;
68214;SDS011;55036;52.138;5.236;2023-08-06T02:50:41;17.13;;;10.10;;
68214;SDS011;55036;52.138;5.236;2023-08-06T02:53:08;15.18;;;10.20;;
68214;SDS011;55036;52.138;5.236;2023-08-06T02:55:35;14.93;;;10.13;;
68214;SDS011;55036;52.138;5.236;2023-08-06T02:58:02;15.27;;;11.50;;
68214;SDS011;55036;52.138;5.236;2023-08-06T03:00:29;19.05;;;11.40;;
68214;SDS011;55036;52.138;5.236;2023-08-06T03:02:56;15.98;;;10.77;;
68214;SDS011;55036;52.138;5.236;2023-08-06T03:05:23;15.40;;;11.10;;
68214;SDS011;55036;52.138;5.236;2023-08-06T03:07:49;15.15;;;11.20;;
68214;SDS011;55036;52.138;5.236;2023-08-06T03:10:16;18.17;;;12.25;;
68214;SDS011;55036;52.138;5.236;2023-08-06T03:12:43;17.05;;;12.10;;
68214;SDS011;55036;52.138;5.236;2023-08-06T03:15:10;17.35;;;12.02;;
68214;SDS011;55036;52.138;5.236;2023-08-06T03:17:36;17.13;;;11.82;;
68214;SDS011;55036;52.138;5.236;2023-08-06T03:20:03;21.17;;;12.52;;
68214;SDS011;55036;52.138;5.236;2023-08-06T03:22:31;14.50;;;11.15;;
68214;SDS011;55036;52.138;5.236;2023-08-06T03:24:57;14.90;;;10.95;;
68214;SDS011;55036;52.138;5.236;2023-08-06T03:27:24;15.13;;;11.00;;
68214;SDS011;55036;52.138;5.236;2023-08-06T03:29:51;16.15;;;10.82;;
68214;SDS011;55036;52.138;5.236;2023-08-06T03:32:18;15.48;;;12.45;;
68214;SDS011;55036;52.138;5.236;2023-08-06T03:34:45;16.20;;;11.13;;
68214;SDS011;55036;52.138;5.236;2023-08-06T03:37:11;16.55;;;11.00;;
68214;SDS011;55036;52.138;5.236;2023-08-06T03:39:38;14.63;;;11.63;;
68214;SDS011;55036;52.138;5.236;2023-08-06T03:42:06;15.13;;;10.60;;
68214;SDS011;55036;52.138;5.236;2023-08-06T03:44:32;15.73;;;11.35;;
68214;SDS011;55036;52.138;5.236;2023-08-06T03:46:59;15.07;;;11.05;;
68214;SDS011;55036;52.138;5.236;2023-08-06T03:49:26;14.77;;;10.80;;
68214;SDS011;55036;52.138;5.236;2023-08-06T03:51:53;15.30;;;10.35;;
68214;SDS011;55036;52.138;5.236;2023-08-06T03:54:20;16.30;;;11.18;;
68214;SDS011;55036;52.138;5.236;2023-08-06T03:56:46;14.05;;;10.48;;
68214;SDS011;55036;52.138;5.236;2023-08-06T03:59:13;15.43;;;10.13;;
68214;SDS011;55036;52.138;5.236;2023-08-06T04:01:40;12.68;;;10.93;;
68214;SDS011;55036;52.138;5.236;2023-08-06T04:04:07;18.67;;;11.27;;
68214;SDS011;55036;52.138;5.236;2023-08-06T04:06:33;14.73;;;11.63;;
68214;SDS011;55036;52.138;5.236;2023-08-06T04:09:00;17.10;;;11.88;;
68214;SDS011;55036;52.138;5.236;2023-08-06T04:11:27;17.23;;;11.95;;
68214;SDS011;55036;52.138;5.236;2023-08-06T04:13:54;13.85;;;11.30;;
68214;SDS011;55036;52.138;5.236;2023-08-06T04:16:21;17.38;;;11.73;;
68214;SDS011;55036;52.138;5.236;2023-08-06T04:18:48;15.52;;;11.60;;
68214;SDS011;55036;52.138;5.236;2023-08-06T04:21:15;12.60;;;10.25;;
68214;SDS011;55036;52.138;5.236;2023-08-06T04:23:41;14.73;;;10.75;;
68214;SDS011;55036;52.138;5.236;2023-08-06T04:26:08;14.57;;;10.73;;
68214;SDS011;55036;52.138;5.236;2023-08-06T04:28:35;16.05;;;11.23;;
68214;SDS011;55036;52.138;5.236;2023-08-06T04:31:01;15.95;;;10.02;;
68214;SDS011;55036;52.138;5.236;2023-08-06T04:33:28;14.02;;;9.95;;
68214;SDS011;55036;52.138;5.236;2023-08-06T04:35:55;14.90;;;10.00;;
68214;SDS011;55036;52.138;5.236;2023-08-06T04:38:23;14.55;;;9.38;;
68214;SDS011;55036;52.138;5.236;2023-08-06T04:40:51;17.65;;;11.00;;
68214;SDS011;55036;52.138;5.236;2023-08-06T04:43:19;14.25;;;9.70;;
68214;SDS011;55036;52.138;5.236;2023-08-06T04:45:49;14.68;;;9.80;;
68214;SDS011;55036;52.138;5.236;2023-08-06T04:48:17;14.07;;;9.88;;
68214;SDS011;55036;52.138;5.236;2023-08-06T04:50:44;11.90;;;8.38;;
68214;SDS011;55036;52.138;5.236;2023-08-06T04:53:15;10.88;;;9.05;;
68214;SDS011;55036;52.138;5.236;2023-08-06T04:55:42;11.40;;;8.80;;
68214;SDS011;55036;52.138;5.236;2023-08-06T04:58:09;13.65;;;9.18;;
68214;SDS011;55036;52.138;5.236;2023-08-06T05:00:37;13.25;;;9.07;;
68214;SDS011;55036;52.138;5.236;2023-08-06T05:03:04;14.13;;;10.10;;
68214;SDS011;55036;52.138;5.236;2023-08-06T05:05:31;12.15;;;9.70;;
68214;SDS011;55036;52.138;5.236;2023-08-06T05:07:58;14.55;;;10.77;;
68214;SDS011;55036;52.138;5.236;2023-08-06T05:10:25;13.07;;;10.30;;
68214;SDS011;55036;52.138;5.236;2023-08-06T05:12:52;14.25;;;10.90;;
68214;SDS011;55036;52.138;5.236;2023-08-06T05:15:19;15.27;;;10.57;;
68214;SDS011;55036;52.138;5.236;2023-08-06T05:17:46;15.30;;;11.02;;
68214;SDS011;55036;52.138;5.236;2023-08-06T05:20:13;15.38;;;10.57;;
68214;SDS011;55036;52.138;5.236;2023-08-06T05:22:40;15.75;;;11.30;;
68214;SDS011;55036;52.138;5.236;2023-08-06T05:25:06;16.65;;;11.57;;
68214;SDS011;55036;52.138;5.236;2023-08-06T05:27:34;16.02;;;12.35;;
68214;SDS011;55036;52.138;5.236;2023-08-06T05:30:00;15.93;;;11.35;;
68214;SDS011;55036;52.138;5.236;2023-08-06T05:32:27;19.40;;;13.63;;
68214;SDS011;55036;52.138;5.236;2023-08-06T05:34:54;18.38;;;12.05;;
68214;SDS011;55036;52.138;5.236;2023-08-06T05:37:21;16.48;;;12.60;;
68214;SDS011;55036;52.138;5.236;2023-08-06T05:39:47;18.58;;;12.63;;
68214;SDS011;55036;52.138;5.236;2023-08-06T05:42:14;18.20;;;13.27;;
68214;SDS011;55036;52.138;5.236;2023-08-06T05:44:41;21.63;;;14.00;;
68214;SDS011;55036;52.138;5.236;2023-08-06T05:47:08;18.88;;;13.45;;
68214;SDS011;55036;52.138;5.236;2023-08-06T05:49:34;19.00;;;13.15;;
68214;SDS011;55036;52.138;5.236;2023-08-06T05:52:01;17.60;;;13.07;;
68214;SDS011;55036;52.138;5.236;2023-08-06T05:54:29;19.60;;;13.43;;
68214;SDS011;55036;52.138;5.236;2023-08-06T05:56:55;20.00;;;14.23;;
68214;SDS011;55036;52.138;5.236;2023-08-06T05:59:22;19.08;;;13.65;;
68214;SDS011;55036;52.138;5.236;2023-08-06T06:01:49;19.20;;;14.27;;
68214;SDS011;55036;52.138;5.236;2023-08-06T06:04:16;17.30;;;13.27;;
68214;SDS011;55036;52.138;5.236;2023-08-06T06:06:43;18.85;;;13.40;;
68214;SDS011;55036;52.138;5.236;2023-08-06T06:09:11;23.02;;;13.43;;
68214;SDS011;55036;52.138;5.236;2023-08-06T06:11:37;18.23;;;13.43;;
68214;SDS011;55036;52.138;5.236;2023-08-06T06:14:04;17.52;;;13.20;;
68214;SDS011;55036;52.138;5.236;2023-08-06T06:16:31;16.00;;;12.68;;
68214;SDS011;55036;52.138;5.236;2023-08-06T06:18:57;15.35;;;12.32;;
68214;SDS011;55036;52.138;5.236;2023-08-06T06:21:24;18.35;;;12.48;;
68214;SDS011;55036;52.138;5.236;2023-08-06T06:23:51;13.27;;;10.40;;
68214;SDS011;55036;52.138;5.236;2023-08-06T06:26:18;13.90;;;10.30;;
68214;SDS011;55036;52.138;5.236;2023-08-06T06:28:45;12.13;;;7.72;;
68214;SDS011;55036;52.138;5.236;2023-08-06T06:31:11;9.15;;;6.82;;
68214;SDS011;55036;52.138;5.236;2023-08-06T06:33:38;5.82;;;4.88;;
68214;SDS011;55036;52.138;5.236;2023-08-06T06:36:05;3.90;;;3.08;;
68214;SDS011;55036;52.138;5.236;2023-08-06T06:38:34;5.28;;;2.72;;
68214;SDS011;55036;52.138;5.236;2023-08-06T06:41:00;2.92;;;2.30;;
68214;SDS011;55036;52.138;5.236;2023-08-06T06:43:29;2.70;;;2.20;;
68214;SDS011;55036;52.138;5.236;2023-08-06T06:45:56;2.55;;;2.15;;
68214;SDS011;55036;52.138;5.236;2023-08-06T06:48:27;2.53;;;1.95;;
68214;SDS011;55036;52.138;5.236;2023-08-06T06:50:54;2.28;;;2.00;;
68214;SDS011;55036;52.138;5.236;2023-08-06T06:53:22;2.72;;;2.00;;
68214;SDS011;55036;52.138;5.236;2023-08-06T06:56:02;3.30;;;2.05;;
68214;SDS011;55036;52.138;5.236;2023-08-06T06:58:30;3.22;;;1.90;;
68214;SDS011;55036;52.138;5.236;2023-08-06T07:00:57;4.78;;;2.17;;
68214;SDS011;55036;52.138;5.236;2023-08-06T07:03:24;3.10;;;2.40;;
68214;SDS011;55036;52.138;5.236;2023-08-06T07:05:51;2.17;;;1.80;;
68214;SDS011;55036;52.138;5.236;2023-08-06T07:08:18;2.55;;;1.90;;
68214;SDS011;55036;52.138;5.236;2023-08-06T07:10:44;2.35;;;2.00;;
68214;SDS011;55036;52.138;5.236;2023-08-06T07:13:11;2.65;;;2.08;;
68214;SDS011;55036;52.138;5.236;2023-08-06T07:15:38;3.63;;;2.00;;
68214;SDS011;55036;52.138;5.236;2023-08-06T07:18:05;5.50;;;2.60;;
68214;SDS011;55036;52.138;5.236;2023-08-06T07:20:32;2.85;;;2.40;;
68214;SDS011;55036;52.138;5.236;2023-08-06T07:23:00;2.45;;;2.13;;
68214;SDS011;55036;52.138;5.236;2023-08-06T07:25:27;3.03;;;2.38;;
68214;SDS011;55036;52.138;5.236;2023-08-06T07:27:54;4.15;;;2.45;;
68214;SDS011;55036;52.138;5.236;2023-08-06T07:30:22;4.43;;;2.58;;
68214;SDS011;55036;52.138;5.236;2023-08-06T07:32:50;4.43;;;2.45;;
68214;SDS011;55036;52.138;5.236;2023-08-06T07:35:18;3.70;;;2.92;;
68214;SDS011;55036;52.138;5.236;2023-08-06T07:37:45;4.97;;;3.05;;
68214;SDS011;55036;52.138;5.236;2023-08-06T07:40:12;3.97;;;2.92;;
68214;SDS011;55036;52.138;5.236;2023-08-06T07:42:38;5.15;;;3.45;;
68214;SDS011;55036;52.138;5.236;2023-08-06T07:45:06;7.20;;;3.30;;
68214;SDS011;55036;52.138;5.236;2023-08-06T07:47:33;3.67;;;3.10;;
68214;SDS011;55036;52.138;5.236;2023-08-06T07:50:00;3.50;;;2.78;;
68214;SDS011;55036;52.138;5.236;2023-08-06T07:52:27;6.00;;;2.38;;
68214;SDS011;55036;52.138;5.236;2023-08-06T07:54:54;6.38;;;2.78;;
68214;SDS011;55036;52.138;5.236;2023-08-06T07:57:20;4.90;;;2.60;;
68214;SDS011;55036;52.138;5.236;2023-08-06T07:59:47;4.68;;;2.60;;
68214;SDS011;55036;52.138;5.236;2023-08-06T08:02:14;6.18;;;3.03;;
68214;SDS011;55036;52.138;5.236;2023-08-06T08:04:40;5.53;;;2.58;;
68214;SDS011;55036;52.138;5.236;2023-08-06T08:07:09;3.90;;;2.50;;
68214;SDS011;55036;52.138;5.236;2023-08-06T08:09:36;3.17;;;2.38;;
68214;SDS011;55036;52.138;5.236;2023-08-06T08:12:03;3.58;;;2.65;;
68214;SDS011;55036;52.138;5.236;2023-08-06T08:14:30;7.18;;;2.70;;
68214;SDS011;55036;52.138;5.236;2023-08-06T08:19:29;6.10;;;2.55;;
68214;SDS011;55036;52.138;5.236;2023-08-06T08:21:56;3.40;;;2.63;;
68214;SDS011;55036;52.138;5.236;2023-08-06T08:24:23;4.13;;;2.72;;
68214;SDS011;55036;52.138;5.236;2023-08-06T08:26:50;6.28;;;3.40;;
68214;SDS011;55036;52.138;5.236;2023-08-06T08:29:18;4.80;;;2.92;;
68214;SDS011;55036;52.138;5.236;2023-08-06T08:31:46;5.07;;;2.80;;
68214;SDS011;55036;52.138;5.236;2023-08-06T08:34:15;6.95;;;3.20;;
68214;SDS011;55036;52.138;5.236;2023-08-06T08:36:43;6.10;;;3.20;;
68214;SDS011;55036;52.138;5.236;2023-08-06T08:39:10;5.00;;;3.45;;
68214;SDS011;55036;52.138;5.236;2023-08-06T08:41:37;4.38;;;3.42;;
68214;SDS011;55036;52.138;5.236;2023-08-06T08:44:07;5.90;;;4.10;;
68214;SDS011;55036;52.138;5.236;2023-08-06T08:46:40;6.20;;;4.20;;
68214;SDS011;55036;52.138;5.236;2023-08-06T08:49:07;8.63;;;4.13;;
68214;SDS011;55036;52.138;5.236;2023-08-06T08:51:34;6.63;;;4.03;;
68214;SDS011;55036;52.138;5.236;2023-08-06T08:54:05;6.75;;;4.35;;
68214;SDS011;55036;52.138;5.236;2023-08-06T08:56:34;6.03;;;4.53;;
68214;SDS011;55036;52.138;5.236;2023-08-06T08:59:01;5.13;;;4.30;;
68214;SDS011;55036;52.138;5.236;2023-08-06T09:01:28;5.55;;;4.55;;
68214;SDS011;55036;52.138;5.236;2023-08-06T09:03:55;8.00;;;5.43;;
68214;SDS011;55036;52.138;5.236;2023-08-06T09:06:24;6.10;;;5.43;;
68214;SDS011;55036;52.138;5.236;2023-08-06T09:09:01;8.43;;;5.82;;
68214;SDS011;55036;52.138;5.236;2023-08-06T09:11:33;8.15;;;5.38;;
68214;SDS011;55036;52.138;5.236;2023-08-06T09:14:07;10.10;;;5.70;;
68214;SDS011;55036;52.138;5.236;2023-08-06T09:16:36;9.90;;;5.43;;
68214;SDS011;55036;52.138;5.236;2023-08-06T09:19:21;7.90;;;5.47;;
68214;SDS011;55036;52.138;5.236;2023-08-06T09:21:50;9.60;;;5.82;;
68214;SDS011;55036;52.138;5.236;2023-08-06T09:24:18;9.35;;;5.20;;
68214;SDS011;55036;52.138;5.236;2023-08-06T09:26:45;7.10;;;4.47;;
68214;SDS011;55036;52.138;5.236;2023-08-06T09:29:12;6.50;;;4.70;;
68214;SDS011;55036;52.138;5.236;2023-08-06T09:31:45;6.38;;;4.53;;
68214;SDS011;55036;52.138;5.236;2023-08-06T09:34:18;6.18;;;4.32;;
68214;SDS011;55036;52.138;5.236;2023-08-06T09:36:49;4.97;;;3.55;;
68214;SDS011;55036;52.138;5.236;2023-08-06T09:39:20;4.15;;;3.50;;
68214;SDS011;55036;52.138;5.236;2023-08-06T09:41:48;6.53;;;3.83;;
68214;SDS011;55036;52.138;5.236;2023-08-06T09:44:22;5.00;;;3.50;;
68214;SDS011;55036;52.138;5.236;2023-08-06T09:46:52;4.85;;;3.67;;
68214;SDS011;55036;52.138;5.236;2023-08-06T09:49:25;6.55;;;3.90;;
68214;SDS011;55036;52.138;5.236;2023-08-06T09:51:53;7.70;;;4.10;;
68214;SDS011;55036;52.138;5.236;2023-08-06T09:54:26;7.90;;;4.15;;
68214;SDS011;55036;52.138;5.236;2023-08-06T09:56:54;6.15;;;4.07;;
68214;SDS011;55036;52.138;5.236;2023-08-06T09:59:22;8.02;;;4.95;;
68214;SDS011;55036;52.138;5.236;2023-08-06T10:01:50;8.27;;;5.00;;
68214;SDS011;55036;52.138;5.236;2023-08-06T10:04:19;5.72;;;4.03;;
68214;SDS011;55036;52.138;5.236;2023-08-06T10:06:50;8.52;;;4.43;;
68214;SDS011;55036;52.138;5.236;2023-08-06T10:09:19;6.88;;;4.25;;
68214;SDS011;55036;52.138;5.236;2023-08-06T10:11:51;6.30;;;4.32;;
68214;SDS011;55036;52.138;5.236;2023-08-06T10:14:33;7.15;;;3.85;;
68214;SDS011;55036;52.138;5.236;2023-08-06T10:17:03;5.35;;;3.78;;
68214;SDS011;55036;52.138;5.236;2023-08-06T10:19:30;7.70;;;4.00;;
68214;SDS011;55036;52.138;5.236;2023-08-06T10:24:54;6.95;;;3.60;;
68214;SDS011;55036;52.138;5.236;2023-08-06T10:27:32;7.35;;;3.65;;
68214;SDS011;55036;52.138;5.236;2023-08-06T10:30:24;5.65;;;3.58;;
68214;SDS011;55036;52.138;5.236;2023-08-06T10:32:55;5.57;;;3.10;;
68214;SDS011;55036;52.138;5.236;2023-08-06T10:37:58;5.25;;;2.90;;
68214;SDS011;55036;52.138;5.236;2023-08-06T10:40:29;5.43;;;3.10;;
68214;SDS011;55036;52.138;5.236;2023-08-06T10:43:03;4.57;;;3.13;;
68214;SDS011;55036;52.138;5.236;2023-08-06T10:45:36;8.13;;;3.40;;
68214;SDS011;55036;52.138;5.236;2023-08-06T10:50:31;5.25;;;3.60;;
68214;SDS011;55036;52.138;5.236;2023-08-06T10:52:58;7.40;;;3.00;;
68214;SDS011;55036;52.138;5.236;2023-08-06T10:55:32;8.93;;;3.50;;
68214;SDS011;55036;52.138;5.236;2023-08-06T10:57:59;5.97;;;3.45;;
68214;SDS011;55036;52.138;5.236;2023-08-06T11:00:26;4.50;;;2.90;;
68214;SDS011;55036;52.138;5.236;2023-08-06T11:02:53;5.90;;;3.50;;
68214;SDS011;55036;52.138;5.236;2023-08-06T11:05:21;5.18;;;2.97;;
68214;SDS011;55036;52.138;5.236;2023-08-06T11:07:48;4.95;;;3.28;;
68214;SDS011;55036;52.138;5.236;2023-08-06T11:10:15;5.85;;;2.83;;
68214;SDS011;55036;52.138;5.236;2023-08-06T11:12:42;5.97;;;2.50;;
68214;SDS011;55036;52.138;5.236;2023-08-06T11:15:09;6.07;;;2.85;;
68214;SDS011;55036;52.138;5.236;2023-08-06T11:17:38;6.95;;;3.17;;
68214;SDS011;55036;52.138;5.236;2023-08-06T11:20:06;5.55;;;3.10;;
68214;SDS011;55036;52.138;5.236;2023-08-06T11:22:33;4.32;;;3.00;;
68214;SDS011;55036;52.138;5.236;2023-08-06T11:25:02;4.65;;;2.65;;
68214;SDS011;55036;52.138;5.236;2023-08-06T11:27:29;6.60;;;3.20;;
68214;SDS011;55036;52.138;5.236;2023-08-06T11:29:56;4.75;;;2.65;;
68214;SDS011;55036;52.138;5.236;2023-08-06T11:32:23;3.92;;;2.60;;
68214;SDS011;55036;52.138;5.236;2023-08-06T11:34:50;7.95;;;2.33;;
68214;SDS011;55036;52.138;5.236;2023-08-06T11:37:20;6.57;;;2.65;;
68214;SDS011;55036;52.138;5.236;2023-08-06T11:39:48;4.32;;;2.33;;
68214;SDS011;55036;52.138;5.236;2023-08-06T11:42:15;5.47;;;2.40;;
68214;SDS011;55036;52.138;5.236;2023-08-06T11:44:42;4.70;;;2.30;;
68214;SDS011;55036;52.138;5.236;2023-08-06T11:47:12;4.57;;;2.22;;
68214;SDS011;55036;52.138;5.236;2023-08-06T11:49:44;4.05;;;2.15;;
68214;SDS011;55036;52.138;5.236;2023-08-06T11:52:14;3.35;;;1.90;;
68214;SDS011;55036;52.138;5.236;2023-08-06T11:55:07;4.30;;;2.40;;
68214;SDS011;55036;52.138;5.236;2023-08-06T11:57:38;5.05;;;1.83;;
68214;SDS011;55036;52.138;5.236;2023-08-06T12:00:07;3.83;;;1.60;;
68214;SDS011;55036;52.138;5.236;2023-08-06T12:02:41;4.30;;;1.58;;
68214;SDS011;55036;52.138;5.236;2023-08-06T12:05:12;3.80;;;1.70;;
68214;SDS011;55036;52.138;5.236;2023-08-06T12:07:40;2.10;;;0.95;;
68214;SDS011;55036;52.138;5.236;2023-08-06T12:10:08;3.15;;;1.20;;
68214;SDS011;55036;52.138;5.236;2023-08-06T12:12:36;2.28;;;1.40;;
68214;SDS011;55036;52.138;5.236;2023-08-06T12:15:04;3.30;;;1.30;;
68214;SDS011;55036;52.138;5.236;2023-08-06T12:17:32;2.95;;;1.38;;
68214;SDS011;55036;52.138;5.236;2023-08-06T12:19:59;4.82;;;1.45;;
68214;SDS011;55036;52.138;5.236;2023-08-06T12:22:26;3.75;;;1.20;;
68214;SDS011;55036;52.138;5.236;2023-08-06T12:24:53;3.20;;;1.27;;
68214;SDS011;55036;52.138;5.236;2023-08-06T12:27:19;3.15;;;1.20;;
68214;SDS011;55036;52.138;5.236;2023-08-06T12:29:49;2.83;;;1.00;;
68214;SDS011;55036;52.138;5.236;2023-08-06T12:32:16;3.90;;;1.20;;
68214;SDS011;55036;52.138;5.236;2023-08-06T12:34:43;1.98;;;1.10;;
68214;SDS011;55036;52.138;5.236;2023-08-06T12:37:18;2.70;;;1.13;;
68214;SDS011;55036;52.138;5.236;2023-08-06T12:39:46;2.95;;;1.15;;
68214;SDS011;55036;52.138;5.236;2023-08-06T12:42:12;2.03;;;1.20;;
68214;SDS011;55036;52.138;5.236;2023-08-06T12:44:39;1.42;;;1.13;;
68214;SDS011;55036;52.138;5.236;2023-08-06T12:47:09;6.07;;;1.50;;
68214;SDS011;55036;52.138;5.236;2023-08-06T12:49:36;2.95;;;1.33;;
68214;SDS011;55036;52.138;5.236;2023-08-06T12:52:03;2.45;;;1.50;;
68214;SDS011;55036;52.138;5.236;2023-08-06T12:54:32;2.72;;;1.33;;
68214;SDS011;55036;52.138;5.236;2023-08-06T12:57:05;2.83;;;1.67;;
68214;SDS011;55036;52.138;5.236;2023-08-06T12:59:32;2.80;;;1.30;;
68214;SDS011;55036;52.138;5.236;2023-08-06T13:01:59;3.13;;;1.40;;
68214;SDS011;55036;52.138;5.236;2023-08-06T13:04:27;3.90;;;1.58;;
68214;SDS011;55036;52.138;5.236;2023-08-06T13:06:54;3.17;;;1.48;;
68214;SDS011;55036;52.138;5.236;2023-08-06T13:09:21;4.93;;;1.90;;
68214;SDS011;55036;52.138;5.236;2023-08-06T13:11:48;4.57;;;1.60;;
68214;SDS011;55036;52.138;5.236;2023-08-06T13:14:16;5.22;;;1.95;;
68214;SDS011;55036;52.138;5.236;2023-08-06T13:16:43;2.40;;;1.70;;
68214;SDS011;55036;52.138;5.236;2023-08-06T13:19:11;4.80;;;1.48;;
68214;SDS011;55036;52.138;5.236;2023-08-06T13:24:06;5.05;;;2.00;;
68214;SDS011;55036;52.138;5.236;2023-08-06T13:26:34;3.45;;;1.92;;
68214;SDS011;55036;52.138;5.236;2023-08-06T13:29:01;5.53;;;2.00;;
68214;SDS011;55036;52.138;5.236;2023-08-06T13:31:28;4.45;;;1.77;;
68214;SDS011;55036;52.138;5.236;2023-08-06T13:33:55;2.88;;;1.27;;
68214;SDS011;55036;52.138;5.236;2023-08-06T13:36:24;2.08;;;1.35;;
68214;SDS011;55036;52.138;5.236;2023-08-06T13:38:52;2.80;;;1.80;;
68214;SDS011;55036;52.138;5.236;2023-08-06T13:41:19;3.83;;;1.90;;
68214;SDS011;55036;52.138;5.236;2023-08-06T13:43:46;6.82;;;2.40;;
68214;SDS011;55036;52.138;5.236;2023-08-06T13:46:13;4.78;;;1.77;;
68214;SDS011;55036;52.138;5.236;2023-08-06T13:48:43;6.40;;;1.65;;
68214;SDS011;55036;52.138;5.236;2023-08-06T13:51:11;2.33;;;1.42;;
68214;SDS011;55036;52.138;5.236;2023-08-06T13:53:38;3.78;;;1.90;;
68214;SDS011;55036;52.138;5.236;2023-08-06T13:56:05;6.28;;;1.73;;
68214;SDS011;55036;52.138;5.236;2023-08-06T13:58:33;2.90;;;1.70;;
68214;SDS011;55036;52.138;5.236;2023-08-06T14:00:59;5.07;;;1.70;;
68214;SDS011;55036;52.138;5.236;2023-08-06T14:03:27;4.28;;;1.70;;
68214;SDS011;55036;52.138;5.236;2023-08-06T14:05:53;4.65;;;2.03;;
68214;SDS011;55036;52.138;5.236;2023-08-06T14:08:24;4.05;;;1.75;;
68214;SDS011;55036;52.138;5.236;2023-08-06T14:10:51;5.45;;;1.38;;
68214;SDS011;55036;52.138;5.236;2023-08-06T14:13:18;2.97;;;1.92;;
68214;SDS011;55036;52.138;5.236;2023-08-06T14:15:45;5.35;;;1.90;;
68214;SDS011;55036;52.138;5.236;2023-08-06T14:18:13;4.03;;;1.90;;
68214;SDS011;55036;52.138;5.236;2023-08-06T14:20:41;2.35;;;1.67;;
68214;SDS011;55036;52.138;5.236;2023-08-06T14:23:09;4.72;;;1.92;;
68214;SDS011;55036;52.138;5.236;2023-08-06T14:25:36;6.18;;;1.77;;
68214;SDS011;55036;52.138;5.236;2023-08-06T14:28:03;7.22;;;2.83;;
68214;SDS011;55036;52.138;5.236;2023-08-06T14:30:32;3.65;;;1.50;;
68214;SDS011;55036;52.138;5.236;2023-08-06T14:32:59;2.42;;;1.90;;
68214;SDS011;55036;52.138;5.236;2023-08-06T14:35:42;3.53;;;1.35;;
68214;SDS011;55036;52.138;5.236;2023-08-06T14:38:08;4.57;;;2.00;;
68214;SDS011;55036;52.138;5.236;2023-08-06T14:40:35;4.88;;;2.33;;
68214;SDS011;55036;52.138;5.236;2023-08-06T14:43:05;5.70;;;2.35;;
68214;SDS011;55036;52.138;5.236;2023-08-06T14:45:32;2.95;;;2.05;;
68214;SDS011;55036;52.138;5.236;2023-08-06T14:47:59;4.28;;;1.88;;
68214;SDS011;55036;52.138;5.236;2023-08-06T14:50:25;2.55;;;1.67;;
68214;SDS011;55036;52.138;5.236;2023-08-06T14:52:52;3.95;;;2.33;;
68214;SDS011;55036;52.138;5.236;2023-08-06T14:55:25;7.40;;;2.47;;
68214;SDS011;55036;52.138;5.236;2023-08-06T14:57:52;4.53;;;1.70;;
68214;SDS011;55036;52.138;5.236;2023-08-06T15:00:19;6.82;;;1.90;;
68214;SDS011;55036;52.138;5.236;2023-08-06T15:02:46;4.35;;;1.00;;
68214;SDS011;55036;52.138;5.236;2023-08-06T15:05:13;4.93;;;1.60;;
68214;SDS011;55036;52.138;5.236;2023-08-06T15:07:40;6.70;;;1.73;;
68214;SDS011;55036;52.138;5.236;2023-08-06T15:10:07;6.47;;;1.30;;
68214;SDS011;55036;52.138;5.236;2023-08-06T15:12:52;5.35;;;1.67;;
68214;SDS011;55036;52.138;5.236;2023-08-06T15:15:19;7.15;;;1.38;;
68214;SDS011;55036;52.138;5.236;2023-08-06T15:17:46;5.03;;;1.67;;
68214;SDS011;55036;52.138;5.236;2023-08-06T15:20:13;8.93;;;1.90;;
68214;SDS011;55036;52.138;5.236;2023-08-06T15:22:40;8.55;;;2.05;;
68214;SDS011;55036;52.138;5.236;2023-08-06T15:25:07;5.30;;;1.52;;
68214;SDS011;55036;52.138;5.236;2023-08-06T15:27:34;3.85;;;1.50;;
68214;SDS011;55036;52.138;5.236;2023-08-06T15:30:02;5.70;;;1.65;;
68214;SDS011;55036;52.138;5.236;2023-08-06T15:32:29;9.23;;;1.80;;
68214;SDS011;55036;52.138;5.236;2023-08-06T15:34:56;4.03;;;1.20;;
68214;SDS011;55036;52.138;5.236;2023-08-06T15:37:23;6.15;;;1.70;;